createdAt,value
2018-08-28T00:02:19.836Z,14.20
2018-08-28T00:04:47.082Z,14.20
2018-08-28T00:07:14.215Z,14.10
2018-08-28T00:09:42.342Z,14.20
2018-08-28T00:12:09.568Z,14.10
2018-08-28T00:14:36.763Z,14.00
2018-08-28T00:17:03.999Z,13.90
2018-08-28T00:19:31.162Z,13.90
2018-08-28T00:21:58.422Z,13.80
2018-08-28T00:24:25.528Z,13.70
2018-08-28T00:26:52.700Z,13.70
2018-08-28T00:29:19.846Z,13.60
2018-08-28T00:31:46.979Z,13.50
2018-08-28T00:34:14.252Z,13.50
2018-08-28T00:36:41.387Z,13.40
2018-08-28T00:39:08.523Z,13.40
2018-08-28T00:41:35.649Z,13.40
2018-08-28T00:44:03.035Z,13.40
2018-08-28T00:46:30.191Z,13.40
2018-08-28T00:48:57.392Z,13.40
2018-08-28T00:51:24.575Z,13.30
2018-08-28T00:53:51.756Z,13.20
2018-08-28T00:56:18.897Z,13.20
2018-08-28T00:58:46.056Z,13.10
2018-08-28T01:01:13.163Z,13.10
2018-08-28T01:03:40.277Z,13.10
2018-08-28T01:06:07.395Z,13.10
2018-08-28T01:08:34.903Z,13.00
2018-08-28T01:11:02.063Z,13.00
2018-08-28T01:13:29.176Z,13.10
2018-08-28T01:15:56.342Z,13.10
2018-08-28T01:18:23.520Z,13.20
2018-08-28T01:20:50.692Z,13.30
2018-08-28T01:23:17.847Z,13.40
2018-08-28T01:25:44.988Z,13.50
2018-08-28T01:28:12.129Z,13.70
2018-08-28T01:30:39.224Z,13.80
2018-08-28T01:33:06.522Z,13.80
2018-08-28T01:35:34.166Z,13.80
2018-08-28T01:38:01.365Z,13.70
2018-08-28T01:40:28.837Z,13.80
2018-08-28T01:42:56.516Z,13.80
2018-08-28T01:45:23.684Z,13.70
2018-08-28T01:47:50.822Z,13.60
2018-08-28T01:50:18.094Z,13.30
2018-08-28T01:52:45.191Z,13.20
2018-08-28T01:55:12.317Z,13.10
2018-08-28T01:57:39.424Z,13.20
2018-08-28T02:00:06.880Z,13.30
2018-08-28T02:02:33.993Z,13.20
2018-08-28T02:05:01.186Z,13.30
2018-08-28T02:07:28.316Z,13.30
2018-08-28T02:09:55.417Z,13.20
2018-08-28T02:12:22.560Z,13.30
2018-08-28T02:14:49.678Z,13.30
2018-08-28T02:17:16.780Z,13.40
2018-08-28T02:19:43.898Z,13.50
2018-08-28T02:22:11.026Z,13.60
2018-08-28T02:24:38.176Z,13.60
2018-08-28T02:27:05.543Z,13.60
2018-08-28T02:29:32.666Z,13.60
2018-08-28T02:31:59.772Z,13.60
2018-08-28T02:34:26.877Z,13.60
2018-08-28T02:36:54.029Z,13.50
2018-08-28T02:39:21.273Z,13.60
2018-08-28T02:41:48.422Z,13.60
2018-08-28T02:44:15.513Z,13.50
2018-08-28T02:46:42.641Z,13.40
2018-08-28T02:49:09.758Z,13.40
2018-08-28T02:51:36.906Z,13.30
2018-08-28T02:54:04.067Z,13.30
2018-08-28T02:56:31.184Z,13.20
2018-08-28T02:58:58.295Z,13.30
2018-08-28T03:01:25.701Z,13.40
2018-08-28T03:03:52.855Z,13.40
2018-08-28T03:06:20.168Z,13.40
2018-08-28T03:08:47.403Z,13.40
2018-08-28T03:11:14.527Z,13.40
2018-08-28T03:13:41.711Z,13.40
2018-08-28T03:16:08.885Z,13.40
2018-08-28T03:18:35.968Z,13.30
2018-08-28T03:21:03.087Z,13.30
2018-08-28T03:23:30.214Z,13.30
2018-08-28T03:25:57.351Z,13.20
2018-08-28T03:28:24.466Z,13.30
2018-08-28T03:30:51.626Z,13.30
2018-08-28T03:33:18.909Z,13.20
2018-08-28T03:35:46.085Z,13.20
2018-08-28T03:38:13.442Z,13.20
2018-08-28T03:40:40.713Z,13.10
2018-08-28T03:43:08.019Z,13.10
2018-08-28T03:45:35.192Z,13.10
2018-08-28T03:48:02.306Z,13.00
2018-08-28T03:50:29.447Z,13.10
2018-08-28T03:52:56.554Z,13.20
2018-08-28T03:55:23.868Z,13.10
2018-08-28T03:57:51.027Z,13.10
2018-08-28T04:00:18.218Z,13.00
2018-08-28T04:02:45.337Z,13.00
2018-08-28T04:05:12.513Z,13.00
2018-08-28T04:07:39.639Z,12.90
2018-08-28T04:10:06.791Z,12.90
2018-08-28T04:12:34.169Z,13.00
2018-08-28T04:15:01.278Z,12.80
2018-08-28T04:17:28.566Z,12.80
2018-08-28T04:19:55.697Z,12.70
2018-08-28T04:22:22.883Z,12.60
2018-08-28T04:24:50.092Z,12.40
2018-08-28T04:27:17.191Z,12.40
2018-08-28T04:29:44.304Z,12.40
2018-08-28T04:32:11.553Z,12.30
2018-08-28T04:34:38.725Z,12.30
2018-08-28T04:37:05.887Z,12.30
2018-08-28T04:39:32.986Z,12.30
2018-08-28T04:42:00.190Z,12.30
2018-08-28T04:44:27.223Z,12.30
2018-08-28T04:46:54.368Z,12.40
2018-08-28T04:49:21.508Z,12.40
2018-08-28T04:51:48.662Z,12.50
2018-08-28T04:54:15.856Z,12.60
2018-08-28T04:56:42.952Z,12.60
2018-08-28T04:59:10.084Z,12.60
2018-08-28T05:01:37.229Z,12.70
2018-08-28T05:04:04.821Z,12.70
2018-08-28T05:06:31.975Z,12.80
2018-08-28T05:08:59.070Z,12.90
2018-08-28T05:11:26.161Z,13.10
2018-08-28T05:13:53.308Z,13.20
2018-08-28T05:16:20.489Z,13.10
2018-08-28T05:18:47.619Z,13.20
2018-08-28T05:21:14.753Z,13.40
2018-08-28T05:23:41.914Z,13.40
2018-08-28T05:26:09.026Z,13.60
2018-08-28T05:28:36.181Z,13.90
2018-08-28T05:31:03.308Z,15.00
2018-08-28T05:33:30.410Z,16.30
2018-08-28T05:35:57.516Z,17.40
2018-08-28T05:38:25.768Z,18.30
2018-08-28T05:40:52.910Z,18.90
2018-08-28T05:43:20.113Z,19.70
2018-08-28T05:45:47.289Z,20.30
2018-08-28T05:48:14.401Z,20.30
2018-08-28T05:50:41.514Z,20.90
2018-08-28T05:53:08.638Z,21.50
2018-08-28T05:55:35.792Z,22.00
2018-08-28T05:58:03.107Z,21.70
2018-08-28T06:00:30.222Z,22.70
2018-08-28T06:02:57.477Z,22.70
2018-08-28T06:05:24.619Z,23.10
2018-08-28T06:07:51.813Z,23.90
2018-08-28T06:10:19.030Z,24.20
2018-08-28T06:12:46.170Z,24.40
2018-08-28T06:15:13.306Z,24.80
2018-08-28T06:17:40.446Z,25.50
2018-08-28T06:20:07.615Z,25.80
2018-08-28T06:22:34.726Z,26.40
2018-08-28T06:25:02.071Z,26.50
2018-08-28T06:27:29.423Z,26.70
2018-08-28T06:29:56.561Z,26.70
2018-08-28T06:32:23.711Z,26.70
2018-08-28T06:34:50.822Z,26.70
2018-08-28T06:37:18.041Z,27.90
2018-08-28T06:39:45.120Z,28.20
2018-08-28T06:42:12.223Z,27.90
2018-08-28T06:44:39.374Z,25.90
2018-08-28T06:47:06.478Z,25.60
2018-08-28T06:49:33.811Z,24.80
2018-08-28T06:52:01.166Z,24.40
2018-08-28T06:54:28.274Z,24.80
2018-08-28T06:56:55.513Z,26.40
2018-08-28T06:59:22.599Z,28.40
2018-08-28T07:01:49.791Z,28.60
2018-08-28T07:04:16.928Z,30.00
2018-08-28T07:06:44.037Z,30.00
2018-08-28T07:09:11.202Z,29.60
2018-08-28T07:11:38.336Z,29.00
2018-08-28T07:14:05.713Z,29.20
2018-08-28T07:16:32.893Z,31.00
2018-08-28T07:19:00.075Z,31.90
2018-08-28T07:21:27.211Z,30.70
2018-08-28T07:23:54.410Z,30.20
2018-08-28T07:26:21.558Z,30.80
2018-08-28T07:28:48.669Z,30.40
2018-08-28T07:31:15.962Z,29.50
2018-08-28T07:33:43.016Z,29.40
2018-08-28T07:36:10.171Z,28.40
2018-08-28T07:38:37.324Z,27.20
2018-08-28T07:41:04.530Z,27.50
2018-08-28T07:43:31.674Z,28.40
2018-08-28T07:45:59.143Z,30.00
2018-08-28T07:48:26.440Z,31.30
2018-08-28T07:50:53.548Z,31.00
2018-08-28T07:53:20.681Z,30.60
2018-08-28T07:55:47.806Z,30.60
2018-08-28T07:58:14.906Z,31.70
2018-08-28T08:00:42.043Z,32.90
2018-08-28T08:03:09.165Z,33.90
2018-08-28T08:05:36.342Z,34.20
2018-08-28T08:08:03.522Z,34.00
2018-08-28T08:10:30.752Z,33.60
2018-08-28T08:12:57.888Z,33.30
2018-08-28T08:15:25.033Z,33.50
2018-08-28T08:17:52.189Z,32.80
2018-08-28T08:20:19.337Z,34.20
2018-08-28T08:22:46.542Z,34.70
2018-08-28T08:25:13.714Z,35.20
2018-08-28T08:27:40.869Z,35.90
2018-08-28T08:30:08.251Z,35.10
2018-08-28T08:32:35.384Z,35.10
2018-08-28T08:35:02.541Z,35.00
2018-08-28T08:37:29.688Z,35.00
2018-08-28T08:39:56.805Z,35.70
2018-08-28T08:42:24.020Z,34.50
2018-08-28T08:44:51.435Z,33.10
2018-08-28T08:47:18.532Z,33.00
2018-08-28T08:49:45.765Z,33.40
2018-08-28T08:52:12.887Z,34.40
2018-08-28T08:54:40.270Z,34.90
2018-08-28T08:57:07.355Z,34.70
2018-08-28T08:59:34.493Z,34.80
2018-08-28T09:02:01.835Z,34.30
2018-08-28T09:04:28.941Z,33.00
2018-08-28T09:06:56.184Z,32.10
2018-08-28T09:09:23.344Z,32.00
2018-08-28T09:11:50.523Z,30.70
2018-08-28T09:14:17.715Z,28.50
2018-08-28T09:16:44.839Z,28.30
2018-08-28T09:19:11.975Z,29.00
2018-08-28T09:21:39.081Z,28.00
2018-08-28T09:24:06.221Z,27.10
2018-08-28T09:26:33.382Z,26.00
2018-08-28T09:29:00.543Z,25.70
2018-08-28T09:31:27.671Z,25.90
2018-08-28T09:33:54.764Z,25.90
2018-08-28T09:36:22.049Z,26.10
2018-08-28T09:38:49.197Z,26.10
2018-08-28T09:41:16.319Z,25.90
2018-08-28T09:43:43.476Z,26.00
2018-08-28T09:46:10.566Z,26.00
2018-08-28T09:48:37.676Z,26.10
2018-08-28T09:51:04.881Z,25.90
2018-08-28T09:53:32.150Z,26.00
2018-08-28T09:55:59.309Z,26.10
2018-08-28T09:58:26.485Z,26.10
2018-08-28T10:00:59.341Z,26.20
2018-08-28T10:03:26.465Z,26.40
2018-08-28T10:05:53.645Z,26.70
2018-08-28T10:08:20.801Z,26.80
2018-08-28T10:10:47.937Z,27.00
2018-08-28T10:13:15.129Z,26.70
2018-08-28T10:15:42.270Z,26.30
2018-08-28T10:18:09.374Z,26.10
2018-08-28T10:20:36.649Z,25.00
2018-08-28T10:23:04.183Z,24.50
2018-08-28T10:25:31.488Z,24.50
2018-08-28T10:27:58.702Z,24.70
2018-08-28T10:30:26.014Z,24.80
2018-08-28T10:32:53.130Z,25.20
2018-08-28T10:35:20.468Z,25.40
2018-08-28T10:37:47.585Z,25.50
2018-08-28T10:40:14.730Z,25.60
2018-08-28T10:42:41.842Z,25.60
2018-08-28T10:45:08.980Z,25.00
2018-08-28T10:47:36.100Z,24.80
2018-08-28T10:50:03.253Z,24.80
2018-08-28T10:52:30.396Z,24.50
2018-08-28T10:54:57.597Z,24.30
2018-08-28T10:57:24.754Z,24.40
2018-08-28T10:59:51.966Z,24.20
2018-08-28T11:02:19.116Z,23.80
2018-08-28T11:04:46.275Z,23.80
2018-08-28T11:07:13.429Z,23.40
2018-08-28T11:09:40.534Z,23.30
2018-08-28T11:12:07.803Z,23.10
2018-08-28T11:14:35.115Z,22.70
2018-08-28T11:17:02.319Z,22.60
2018-08-28T11:19:29.458Z,22.90
2018-08-28T11:21:56.589Z,23.10
2018-08-28T11:24:23.682Z,23.20
2018-08-28T11:26:50.834Z,23.40
2018-08-28T11:29:17.984Z,23.50
2018-08-28T11:31:45.130Z,23.60
2018-08-28T11:34:12.238Z,23.60
2018-08-28T11:36:39.394Z,23.40
2018-08-28T11:39:06.957Z,23.40
2018-08-28T11:41:34.174Z,23.20
2018-08-28T11:44:01.374Z,22.90
2018-08-28T11:46:28.496Z,22.80
2018-08-28T11:48:55.666Z,22.60
2018-08-28T11:51:22.817Z,22.30
2018-08-28T11:53:49.998Z,22.20
2018-08-28T11:56:17.138Z,22.20
2018-08-28T11:58:44.282Z,22.10
2018-08-28T12:01:11.421Z,22.10
2018-08-28T12:03:38.565Z,22.00
2018-08-28T12:06:05.693Z,22.00
2018-08-28T12:08:32.846Z,22.10
2018-08-28T12:10:59.990Z,22.10
2018-08-28T12:13:27.155Z,22.10
2018-08-28T12:15:54.285Z,22.10
2018-08-28T12:18:21.384Z,22.10
2018-08-28T12:20:48.592Z,22.30
2018-08-28T12:23:15.642Z,22.40
2018-08-28T12:25:42.737Z,22.50
2018-08-28T12:28:09.920Z,22.50
2018-08-28T12:30:37.071Z,22.60
2018-08-28T12:33:04.306Z,22.50
2018-08-28T12:35:31.497Z,22.70
2018-08-28T12:37:58.668Z,22.60
2018-08-28T12:40:25.792Z,22.50
2018-08-28T12:42:52.960Z,22.40
2018-08-28T12:45:20.095Z,22.30
2018-08-28T12:47:47.220Z,22.30
2018-08-28T12:50:14.373Z,22.30
2018-08-28T12:52:41.525Z,22.40
2018-08-28T12:55:08.906Z,22.60
2018-08-28T12:57:36.037Z,22.80
2018-08-28T13:00:03.266Z,23.00
2018-08-28T13:02:30.740Z,23.20
2018-08-28T13:04:57.712Z,23.40
2018-08-28T13:07:24.805Z,23.50
2018-08-28T13:09:51.966Z,23.70
2018-08-28T13:12:19.093Z,23.90
2018-08-28T13:14:46.329Z,24.00
2018-08-28T13:17:13.359Z,24.20
2018-08-28T13:19:40.463Z,24.30
2018-08-28T13:22:07.767Z,23.80
2018-08-28T13:24:35.292Z,24.00
2018-08-28T13:27:02.710Z,23.90
2018-08-28T13:29:30.178Z,24.00
2018-08-28T13:31:57.351Z,24.00
2018-08-28T13:34:24.537Z,24.00
2018-08-28T13:36:51.709Z,23.90
2018-08-28T13:39:18.850Z,23.80
2018-08-28T13:41:46.040Z,23.60
2018-08-28T13:44:13.144Z,23.30
2018-08-28T13:46:40.263Z,23.20
2018-08-28T13:49:07.403Z,23.30
2018-08-28T13:51:34.553Z,23.10
2018-08-28T13:54:01.778Z,23.00
2018-08-28T13:56:28.958Z,23.00
2018-08-28T13:58:56.118Z,22.90
2018-08-28T14:01:23.352Z,23.00
2018-08-28T14:03:50.561Z,23.00
2018-08-28T14:06:17.678Z,23.00
2018-08-28T14:08:44.785Z,23.00
2018-08-28T14:11:11.911Z,23.00
2018-08-28T14:13:39.047Z,23.00
2018-08-28T14:16:06.173Z,23.00
2018-08-28T14:18:33.292Z,23.10
2018-08-28T14:21:00.523Z,23.10
2018-08-28T14:23:27.748Z,23.20
2018-08-28T14:25:54.959Z,23.30
2018-08-28T14:28:22.470Z,23.20
2018-08-28T14:30:49.594Z,23.30
2018-08-28T14:33:16.720Z,23.30
2018-08-28T14:35:43.951Z,23.40
2018-08-28T14:38:10.974Z,23.30
2018-08-28T14:40:38.213Z,23.30
2018-08-28T14:43:05.365Z,23.30
2018-08-28T14:45:32.481Z,23.30
2018-08-28T14:47:59.658Z,23.20
2018-08-28T14:50:26.986Z,23.20
2018-08-28T14:52:54.065Z,23.20
2018-08-28T14:55:21.245Z,23.30
2018-08-28T14:57:48.563Z,23.40
2018-08-28T15:00:15.735Z,23.30
2018-08-28T15:02:42.886Z,23.30
2018-08-28T15:05:10.020Z,23.30
2018-08-28T15:07:37.139Z,23.20
2018-08-28T15:10:04.378Z,23.30
2018-08-28T15:12:31.484Z,23.30
2018-08-28T15:14:58.664Z,23.30
2018-08-28T15:17:25.850Z,23.30
2018-08-28T15:19:53.073Z,23.30
2018-08-28T15:22:20.303Z,23.40
2018-08-28T15:24:47.426Z,23.20
2018-08-28T15:27:14.680Z,23.20
2018-08-28T15:29:41.877Z,23.30
2018-08-28T15:32:09.021Z,23.20
2018-08-28T15:34:36.134Z,23.40
2018-08-28T15:37:03.285Z,23.20
2018-08-28T15:39:30.507Z,23.20
2018-08-28T15:41:57.730Z,23.10
2018-08-28T15:44:24.913Z,23.00
2018-08-28T15:46:52.107Z,23.00
2018-08-28T15:49:19.205Z,23.20
2018-08-28T15:51:46.357Z,23.10
2018-08-28T15:54:13.573Z,23.10
2018-08-28T15:56:40.713Z,23.20
2018-08-28T15:59:08.010Z,23.20
2018-08-28T16:01:34.993Z,23.20
2018-08-28T16:04:02.122Z,23.10
2018-08-28T16:06:29.278Z,23.00
2018-08-28T16:08:56.458Z,23.10
2018-08-28T16:11:23.622Z,23.00
2018-08-28T16:13:50.753Z,22.90
2018-08-28T16:16:17.883Z,22.80
2018-08-28T16:18:45.062Z,22.80
2018-08-28T16:21:12.160Z,22.80
2018-08-28T16:23:41.829Z,22.90
2018-08-28T16:26:08.893Z,22.80
2018-08-28T16:28:36.010Z,22.80
2018-08-28T16:31:03.201Z,22.70
2018-08-28T16:33:30.321Z,22.60
2018-08-28T16:35:57.510Z,22.50
2018-08-28T16:38:24.615Z,22.60
2018-08-28T16:40:51.749Z,22.50
2018-08-28T16:43:18.858Z,22.30
2018-08-28T16:45:45.978Z,22.30
2018-08-28T16:48:13.085Z,22.20
2018-08-28T16:50:40.397Z,22.20
2018-08-28T16:53:07.551Z,22.20
2018-08-28T16:55:34.705Z,22.20
2018-08-28T16:58:01.838Z,22.20
2018-08-28T17:00:28.955Z,22.10
2018-08-28T17:02:56.161Z,22.00
2018-08-28T17:05:23.420Z,21.90
2018-08-28T17:07:50.554Z,21.90
2018-08-28T17:10:17.717Z,22.00
2018-08-28T17:12:44.853Z,21.80
2018-08-28T17:15:12.122Z,21.70
2018-08-28T17:17:39.125Z,21.60
2018-08-28T17:20:06.389Z,21.50
2018-08-28T17:22:33.539Z,21.40
2018-08-28T17:25:00.688Z,21.30
2018-08-28T17:27:27.839Z,21.20
2018-08-28T17:29:55.103Z,21.20
2018-08-28T17:32:22.297Z,21.00
2018-08-28T17:34:49.412Z,20.90
2018-08-28T17:37:16.600Z,21.10
2018-08-28T17:39:43.667Z,21.10
2018-08-28T17:42:10.852Z,21.00
2018-08-28T17:44:38.001Z,21.00
2018-08-28T17:47:05.167Z,21.00
2018-08-28T17:49:32.302Z,21.00
2018-08-28T17:51:59.433Z,20.80
2018-08-28T17:54:26.597Z,20.80
2018-08-28T17:56:53.757Z,20.70
2018-08-28T17:59:20.877Z,20.60
2018-08-28T18:01:48.046Z,20.40
2018-08-28T18:04:15.199Z,20.40
2018-08-28T18:06:42.346Z,20.30
2018-08-28T18:09:09.463Z,20.10
2018-08-28T18:11:36.626Z,19.90
2018-08-28T18:14:03.819Z,19.70
2018-08-28T18:16:31.086Z,19.60
2018-08-28T18:18:58.814Z,19.40
2018-08-28T18:21:25.954Z,19.30
2018-08-28T18:23:53.062Z,19.10
2018-08-28T18:26:20.231Z,18.90
2018-08-28T18:28:47.394Z,18.80
2018-08-28T18:31:14.567Z,18.60
2018-08-28T18:33:41.798Z,18.60
2018-08-28T18:36:09.050Z,18.50
2018-08-28T18:38:36.211Z,18.40
2018-08-28T18:41:03.486Z,18.40
2018-08-28T18:43:30.480Z,18.40
2018-08-28T18:45:57.614Z,18.30
2018-08-28T18:48:24.741Z,18.10
2018-08-28T18:50:51.905Z,17.90
2018-08-28T18:53:19.038Z,18.00
2018-08-28T18:55:46.172Z,17.80
2018-08-28T18:58:13.346Z,17.70
2018-08-28T19:00:40.470Z,17.50
2018-08-28T19:03:07.627Z,17.40
2018-08-28T19:05:34.783Z,17.60
2018-08-28T19:08:01.939Z,17.60
2018-08-28T19:10:29.097Z,17.50
2018-08-28T19:12:56.247Z,17.40
2018-08-28T19:15:23.394Z,17.30
2018-08-28T19:17:51.107Z,17.30
2018-08-28T19:20:18.367Z,17.30
2018-08-28T19:22:45.454Z,17.30
2018-08-28T19:25:12.613Z,17.20
2018-08-28T19:27:39.724Z,17.30
2018-08-28T19:30:06.930Z,17.30
2018-08-28T19:32:34.214Z,17.20
2018-08-28T19:35:01.335Z,17.20
2018-08-28T19:37:28.508Z,17.10
2018-08-28T19:39:55.537Z,17.00
2018-08-28T19:42:22.774Z,16.90
2018-08-28T19:44:49.889Z,16.80
2018-08-28T19:47:17.009Z,16.80
2018-08-28T19:49:44.200Z,16.80
2018-08-28T19:52:11.359Z,16.70
2018-08-28T19:54:38.491Z,16.80
2018-08-28T19:57:05.680Z,16.90
2018-08-28T19:59:32.809Z,16.80
2018-08-28T20:01:59.948Z,16.90
2018-08-28T20:04:27.105Z,16.80
2018-08-28T20:06:54.219Z,16.80
2018-08-28T20:09:21.334Z,16.80
2018-08-28T20:11:48.536Z,16.80
2018-08-28T20:14:15.797Z,16.70
2018-08-28T20:16:42.914Z,16.60
2018-08-28T20:19:10.030Z,16.60
2018-08-28T20:21:37.209Z,16.60
2018-08-28T20:24:04.789Z,16.50
2018-08-28T20:26:32.076Z,16.50
2018-08-28T20:28:59.208Z,16.40
2018-08-28T20:31:26.527Z,16.50
2018-08-28T20:33:53.677Z,16.40
2018-08-28T20:36:20.830Z,16.40
2018-08-28T20:38:47.985Z,16.30
2018-08-28T20:41:15.124Z,16.30
2018-08-28T20:43:42.355Z,16.30
2018-08-28T20:46:09.402Z,16.10
2018-08-28T20:48:36.522Z,16.10
2018-08-28T20:51:03.691Z,16.10
2018-08-28T20:53:30.898Z,16.00
2018-08-28T20:55:58.578Z,16.10
2018-08-28T20:58:25.736Z,16.10
2018-08-28T21:00:52.857Z,16.10
2018-08-28T21:03:19.975Z,16.10
2018-08-28T21:05:47.074Z,16.10
2018-08-28T21:08:14.177Z,16.10
2018-08-28T21:10:41.287Z,16.10
2018-08-28T21:13:08.417Z,16.00
2018-08-28T21:15:35.525Z,16.00
2018-08-28T21:18:02.618Z,15.90
2018-08-28T21:20:29.738Z,15.90
2018-08-28T21:22:56.880Z,15.90
2018-08-28T21:25:23.978Z,15.90
2018-08-28T21:27:51.087Z,15.80
2018-08-28T21:30:18.256Z,15.80
2018-08-28T21:32:45.558Z,15.70
2018-08-28T21:35:12.726Z,15.80
2018-08-28T21:37:40.018Z,15.80
2018-08-28T21:40:07.445Z,15.80
2018-08-28T21:42:34.566Z,15.70
2018-08-28T21:45:01.730Z,15.70
2018-08-28T21:47:28.830Z,15.70
2018-08-28T21:49:55.981Z,15.70
2018-08-28T21:52:23.240Z,15.70
2018-08-28T21:54:50.372Z,15.80
2018-08-28T21:57:17.505Z,15.70
2018-08-28T21:59:44.697Z,15.60
2018-08-28T22:02:11.877Z,15.60
2018-08-28T22:04:39.082Z,15.60
2018-08-28T22:07:12.005Z,15.60
2018-08-28T22:09:40.178Z,15.50
2018-08-28T22:12:07.349Z,15.50
2018-08-28T22:14:34.459Z,15.50
2018-08-28T22:17:01.602Z,15.50
2018-08-28T22:19:28.758Z,15.60
2018-08-28T22:21:55.897Z,15.40
2018-08-28T22:24:23.050Z,15.40
2018-08-28T22:26:50.135Z,15.40
2018-08-28T22:29:17.238Z,15.30
2018-08-28T22:31:44.353Z,15.40
2018-08-28T22:34:11.509Z,15.40
2018-08-28T22:36:38.724Z,15.50
2018-08-28T22:39:06.209Z,15.60
2018-08-28T22:41:33.678Z,15.60
2018-08-28T22:44:00.802Z,15.50
2018-08-28T22:46:27.923Z,15.60
2018-08-28T22:48:55.100Z,15.60
2018-08-28T22:51:22.205Z,15.70
2018-08-28T22:53:49.324Z,15.70
2018-08-28T22:56:16.458Z,15.70
2018-08-28T22:58:43.579Z,15.60
2018-08-28T23:01:10.685Z,15.50
2018-08-28T23:03:37.823Z,15.50
2018-08-28T23:06:04.935Z,15.50
2018-08-28T23:08:32.038Z,15.40
2018-08-28T23:10:59.184Z,15.40
2018-08-28T23:13:26.297Z,15.40
2018-08-28T23:15:53.702Z,15.30
2018-08-28T23:18:20.886Z,15.50
2018-08-28T23:20:47.988Z,15.50
2018-08-28T23:23:15.077Z,15.50
2018-08-28T23:25:42.183Z,15.40
2018-08-28T23:28:09.331Z,15.30
2018-08-28T23:30:36.491Z,15.30
2018-08-28T23:33:03.800Z,15.30
2018-08-28T23:35:30.915Z,15.20
2018-08-28T23:37:58.006Z,15.20
2018-08-28T23:40:25.171Z,15.20
2018-08-28T23:42:52.295Z,15.20
2018-08-28T23:45:19.438Z,15.10
2018-08-28T23:47:46.526Z,15.30
2018-08-28T23:50:13.841Z,15.20
2018-08-28T23:52:41.033Z,15.20
2018-08-28T23:55:08.177Z,15.10
2018-08-28T23:57:35.289Z,15.00
